Time;durP1;ratioP1;P1;durP2;ratioP2;P2;SDS_P1;SDS_P2;PMS_P1;PMS_P2;Temp;Humidity;BMP_temperature;BMP_pressure;BME280_temperature;BME280_humidity;BME280_pressure;Samples;Min_cycle;Max_cycle;Signal;HPM_P1;HPM_P2
2023/05/11 00:00:02;;;;;;;;;;;14.10;90.80;;;;;;5007972;28;19936;-89
2023/05/11 00:02:28;;;;;;;;;;;14.20;90.70;;;;;;5004972;28;19921;-89
2023/05/11 00:04:54;;;;;;;;;;;14.10;90.70;;;;;;5008633;28;19996;-90
2023/05/11 00:07:19;;;;;;;;;;;14.10;90.70;;;;;;5014233;28;19916;-89
2023/05/11 00:09:54;;;;;;;;;;;14.10;90.80;;;;;;5012841;28;20032;-89
2023/05/11 00:12:19;;;;;;;;;;;14.10;90.80;;;;;;5011636;28;19949;-90
2023/05/11 00:14:45;;;;;;;;;;;14.10;90.90;;;;;;5003027;28;19913;-89
2023/05/11 00:17:11;;;;;;;;;;;14.10;90.70;;;;;;5004729;28;19940;-89
2023/05/11 00:19:36;;;;;;;;;;;14.10;90.70;;;;;;5011109;28;19914;-89
2023/05/11 00:22:02;;;;;;;;;;;14.10;90.50;;;;;;5013267;28;19964;-89
2023/05/11 00:24:28;;;;;;;;;;;14.00;90.60;;;;;;5022697;28;19914;-88
2023/05/11 00:26:53;;;;;;;;;;;14.00;90.70;;;;;;5004997;28;20363;-89
2023/05/11 00:29:18;;;;;;;;;;;13.90;90.90;;;;;;5002273;28;20372;-89
2023/05/11 00:31:46;;;;;;;;;;;13.90;90.80;;;;;;5006431;28;19913;-89
2023/05/11 00:34:16;;;;;;;;;;;13.90;90.50;;;;;;5001602;28;19918;-88
2023/05/11 00:36:42;;;;;;;;;;;13.90;90.70;;;;;;5010993;28;19925;-88
2023/05/11 00:39:08;;;;;;;;;;;13.90;90.70;;;;;;4997780;28;20444;-90
2023/05/11 00:41:33;;;;;;;;;;;13.90;90.90;;;;;;5012804;28;19910;-89
2023/05/11 00:43:59;;;;;;;;;;;14.00;91.00;;;;;;5008265;28;20289;-90
2023/05/11 00:46:26;;;;;;;;;;;14.10;90.70;;;;;;5003035;28;19910;-90
2023/05/11 00:48:51;;;;;;;;;;;14.00;90.80;;;;;;5009436;28;20004;-89
2023/05/11 00:51:17;;;;;;;;;;;14.00;90.90;;;;;;5000007;28;19982;-90
2023/05/11 00:53:42;;;;;;;;;;;14.00;90.70;;;;;;5005751;28;19913;-90
2023/05/11 00:56:08;;;;;;;;;;;14.10;90.60;;;;;;5010493;28;19924;-90
2023/05/11 00:58:34;;;;;;;;;;;14.00;90.40;;;;;;5024126;28;20307;-90
2023/05/11 01:01:00;;;;;;;;;;;14.10;90.50;;;;;;5007807;28;19910;-89
2023/05/11 01:03:25;;;;;;;;;;;14.10;90.60;;;;;;5004657;28;20343;-89
2023/05/11 01:06:05;;;;;;;;;;;14.10;90.50;;;;;;5011823;28;20401;-89
2023/05/11 01:08:37;;;;;;;;;;;14.00;90.30;;;;;;5023863;28;19917;-90
2023/05/11 01:11:23;;;;;;;;;;;13.90;90.30;;;;;;5010140;28;19913;-90
2023/05/11 01:13:55;;;;;;;;;;;13.90;90.30;;;;;;5006106;28;19920;-89
2023/05/11 01:16:23;;;;;;;;;;;13.80;90.50;;;;;;4998491;28;19913;-90
2023/05/11 01:18:54;;;;;;;;;;;13.80;90.30;;;;;;5013845;28;19955;-89
2023/05/11 01:21:19;;;;;;;;;;;13.80;90.50;;;;;;5035132;28;19902;-89
2023/05/11 01:23:51;;;;;;;;;;;13.80;90.40;;;;;;5034751;28;19901;-87
2023/05/11 01:26:20;;;;;;;;;;;13.80;90.30;;;;;;5025223;28;19920;-89
2023/05/11 01:28:49;;;;;;;;;;;13.80;90.50;;;;;;5029296;28;19913;-89
2023/05/11 01:31:16;;;;;;;;;;;13.80;90.30;;;;;;5013063;28;19913;-89
2023/05/11 01:33:56;;;;;;;;;;;13.70;90.30;;;;;;5013725;28;19921;-89
2023/05/11 01:36:24;;;;;;;;;;;13.70;90.40;;;;;;5004534;28;19913;-89
2023/05/11 01:38:50;;;;;;;;;;;13.60;90.50;;;;;;5009843;28;19921;-89
2023/05/11 01:41:21;;;;;;;;;;;13.60;90.60;;;;;;5003930;28;20012;-89
2023/05/11 01:43:51;;;;;;;;;;;13.70;90.60;;;;;;5011928;28;20387;-89
2023/05/11 01:46:18;;;;;;;;;;;13.80;90.40;;;;;;5013964;28;19918;-88
2023/05/11 01:48:46;;;;;;;;;;;13.80;90.20;;;;;;5019809;28;19918;-89
2023/05/11 01:51:15;;;;;;;;;;;13.70;90.10;;;;;;5012958;28;20378;-90
2023/05/11 01:53:41;;;;;;;;;;;13.60;90.40;;;;;;5009416;28;19913;-89
2023/05/11 01:56:08;;;;;;;;;;;13.60;90.30;;;;;;5013749;28;19960;-89
2023/05/11 01:58:37;;;;;;;;;;;13.50;90.40;;;;;;5012531;28;19913;-89
2023/05/11 02:01:03;;;;;;;;;;;13.60;90.80;;;;;;5005621;28;19913;-89
2023/05/11 02:03:35;;;;;;;;;;;13.60;90.40;;;;;;5007910;28;20346;-89
2023/05/11 02:06:02;;;;;;;;;;;13.50;90.50;;;;;;5017162;28;19919;-89
2023/05/11 02:08:29;;;;;;;;;;;13.50;90.90;;;;;;5022813;28;19945;-89
2023/05/11 02:10:57;;;;;;;;;;;13.50;91.00;;;;;;5014413;28;20008;-89
2023/05/11 02:13:24;;;;;;;;;;;13.50;90.80;;;;;;5011921;28;19913;-90
2023/05/11 02:15:55;;;;;;;;;;;13.50;90.90;;;;;;5010666;28;19914;-88
2023/05/11 02:18:23;;;;;;;;;;;13.40;90.90;;;;;;5009974;28;19914;-89
2023/05/11 02:20:49;;;;;;;;;;;13.40;91.10;;;;;;5010557;28;19914;-89
2023/05/11 02:23:15;;;;;;;;;;;13.40;91.20;;;;;;5013126;28;19918;-89
2023/05/11 02:25:41;;;;;;;;;;;13.60;91.30;;;;;;5013569;28;20056;-89
2023/05/11 02:28:07;;;;;;;;;;;13.60;91.00;;;;;;5013598;28;19914;-89
2023/05/11 02:30:38;;;;;;;;;;;13.60;90.60;;;;;;5022232;28;19929;-89
2023/05/11 02:33:05;;;;;;;;;;;13.80;90.70;;;;;;5010155;28;19921;-89
2023/05/11 02:35:32;;;;;;;;;;;13.70;90.50;;;;;;5013727;28;19919;-89
2023/05/11 02:38:00;;;;;;;;;;;13.60;90.50;;;;;;5011694;28;19918;-89
2023/05/11 02:40:30;;;;;;;;;;;13.60;90.50;;;;;;5010039;28;19917;-89
2023/05/11 02:42:58;;;;;;;;;;;13.50;90.50;;;;;;5012616;28;19921;-89
2023/05/11 02:45:26;;;;;;;;;;;13.60;90.70;;;;;;5013746;28;19984;-89
2023/05/11 02:47:52;;;;;;;;;;;13.60;90.60;;;;;;5006954;28;19910;-89
2023/05/11 02:50:19;;;;;;;;;;;13.60;90.60;;;;;;5001295;28;20005;-89
2023/05/11 02:52:46;;;;;;;;;;;13.60;90.50;;;;;;5005501;28;19910;-88
2023/05/11 02:55:13;;;;;;;;;;;13.50;90.70;;;;;;5028827;28;19913;-88
2023/05/11 02:57:39;;;;;;;;;;;13.50;90.70;;;;;;5035959;28;19920;-89
2023/05/11 03:00:05;;;;;;;;;;;13.50;90.80;;;;;;5004570;28;20371;-88
2023/05/11 03:02:30;;;;;;;;;;;13.60;90.70;;;;;;4999112;28;19924;-89
2023/05/11 03:04:56;;;;;;;;;;;13.50;90.60;;;;;;5007783;28;19921;-90
2023/05/11 03:07:21;;;;;;;;;;;13.50;90.60;;;;;;5010829;28;19920;-90
2023/05/11 03:09:47;;;;;;;;;;;13.50;90.60;;;;;;5013173;28;19924;-88
2023/05/11 03:12:13;;;;;;;;;;;13.50;90.60;;;;;;5027800;28;20402;-89
2023/05/11 03:14:39;;;;;;;;;;;13.50;90.60;;;;;;5006673;28;19921;-89
2023/05/11 03:17:05;;;;;;;;;;;13.40;90.70;;;;;;5005342;28;19917;-89
2023/05/11 03:19:31;;;;;;;;;;;13.50;90.20;;;;;;5022496;28;19913;-89
2023/05/11 03:22:00;;;;;;;;;;;13.50;90.20;;;;;;5013323;28;19921;-88
2023/05/11 03:24:26;;;;;;;;;;;13.40;90.40;;;;;;5009832;28;19964;-90
2023/05/11 03:26:58;;;;;;;;;;;13.30;90.60;;;;;;5009546;28;19972;-89
2023/05/11 03:29:30;;;;;;;;;;;13.40;90.70;;;;;;5010161;28;19921;-89
2023/05/11 03:31:55;;;;;;;;;;;13.40;90.90;;;;;;5016998;28;19989;-89
2023/05/11 03:34:21;;;;;;;;;;;13.40;90.70;;;;;;5014652;28;19953;-86
2023/05/11 03:36:47;;;;;;;;;;;13.40;90.90;;;;;;5014194;28;20479;-89
2023/05/11 03:39:14;;;;;;;;;;;13.40;90.90;;;;;;5027938;28;19917;-88
2023/05/11 03:41:40;;;;;;;;;;;13.40;90.90;;;;;;5037714;28;19929;-88
2023/05/11 03:44:09;;;;;;;;;;;13.30;90.80;;;;;;5010568;28;19921;-89
2023/05/11 03:46:52;;;;;;;;;;;13.30;90.80;;;;;;5013501;28;19957;-88
2023/05/11 03:49:20;;;;;;;;;;;13.30;91.00;;;;;;5017471;28;19925;-89
2023/05/11 03:51:48;;;;;;;;;;;13.40;90.90;;;;;;5011003;28;19914;-88
2023/05/11 03:54:16;;;;;;;;;;;13.40;90.80;;;;;;5008446;28;19913;-89
2023/05/11 03:56:42;;;;;;;;;;;13.50;90.90;;;;;;5011693;28;19914;-89
2023/05/11 03:59:13;;;;;;;;;;;13.40;90.70;;;;;;5011877;28;19979;-89
2023/05/11 04:01:38;;;;;;;;;;;13.50;90.90;;;;;;5004184;28;19918;-89
2023/05/11 04:04:04;;;;;;;;;;;13.50;91.00;;;;;;5013034;28;19928;-89
2023/05/11 04:06:30;;;;;;;;;;;13.60;91.20;;;;;;5009909;28;19914;-89
2023/05/11 04:09:01;;;;;;;;;;;13.60;90.90;;;;;;5010879;28;20100;-89
2023/05/11 04:11:28;;;;;;;;;;;13.60;90.70;;;;;;5011798;28;19953;-89
2023/05/11 04:14:02;;;;;;;;;;;13.60;90.90;;;;;;5009687;28;19976;-90
2023/05/11 04:16:27;;;;;;;;;;;13.70;90.70;;;;;;5004497;28;19926;-90
2023/05/11 04:18:55;;;;;;;;;;;13.60;90.40;;;;;;5011870;28;19943;-89
2023/05/11 04:21:21;;;;;;;;;;;13.70;90.50;;;;;;5003461;28;20051;-89
2023/05/11 04:23:47;;;;;;;;;;;13.70;90.50;;;;;;5010118;28;19922;-87
2023/05/11 04:26:13;;;;;;;;;;;13.80;90.30;;;;;;5005879;28;19935;-89
2023/05/11 04:28:38;;;;;;;;;;;13.70;90.50;;;;;;5004140;28;19920;-89
2023/05/11 04:31:04;;;;;;;;;;;13.80;90.70;;;;;;5000378;28;19910;-89
2023/05/11 04:33:30;;;;;;;;;;;13.80;90.70;;;;;;4998532;28;19909;-90
2023/05/11 04:35:57;;;;;;;;;;;13.80;90.80;;;;;;4993248;28;19917;-89
2023/05/11 04:38:23;;;;;;;;;;;13.80;90.70;;;;;;5011562;28;19914;-90
2023/05/11 04:40:49;;;;;;;;;;;13.80;90.50;;;;;;5005053;28;19916;-89
2023/05/11 04:43:15;;;;;;;;;;;13.80;90.50;;;;;;5009240;28;19959;-90
2023/05/11 04:45:40;;;;;;;;;;;13.80;90.50;;;;;;5027572;28;19949;-90
2023/05/11 04:48:06;;;;;;;;;;;13.80;90.40;;;;;;5004444;28;19980;-90
2023/05/11 04:50:32;;;;;;;;;;;13.80;90.40;;;;;;5061542;22;19940;-84
2023/05/11 04:52:57;;;;;;;;;;;13.80;90.30;;;;;;5026769;28;20405;-85
2023/05/11 04:55:23;;;;;;;;;;;13.80;90.00;;;;;;5021122;28;19948;-84
2023/05/11 04:57:48;;;;;;;;;;;13.80;90.00;;;;;;5023113;28;19921;-85
2023/05/11 05:00:14;;;;;;;;;;;13.80;90.20;;;;;;5029528;28;19967;-84
2023/05/11 05:02:39;;;;;;;;;;;13.70;90.20;;;;;;5019956;28;20020;-85
2023/05/11 05:05:05;;;;;;;;;;;13.70;90.10;;;;;;5029680;28;19913;-85
2023/05/11 05:07:30;;;;;;;;;;;13.80;89.90;;;;;;5026371;28;19918;-85
2023/05/11 05:09:56;;;;;;;;;;;14.00;89.70;;;;;;5030474;28;19913;-86
2023/05/11 05:12:21;;;;;;;;;;;13.80;89.70;;;;;;5027797;28;19913;-87
2023/05/11 05:14:46;;;;;;;;;;;13.80;90.10;;;;;;5020789;28;20287;-84
2023/05/11 05:17:12;;;;;;;;;;;13.80;90.20;;;;;;5027187;28;20302;-85
2023/05/11 05:19:37;;;;;;;;;;;13.80;90.30;;;;;;5034051;28;19913;-86
2023/05/11 05:22:04;;;;;;;;;;;13.80;90.40;;;;;;5039381;28;19920;-86
2023/05/11 05:24:29;;;;;;;;;;;13.90;90.10;;;;;;5030383;28;19917;-86
2023/05/11 05:26:55;;;;;;;;;;;13.90;90.30;;;;;;5032031;28;19932;-85
2023/05/11 05:29:20;;;;;;;;;;;14.00;89.90;;;;;;5022609;28;19996;-86
2023/05/11 05:31:46;;;;;;;;;;;14.00;89.80;;;;;;5023394;28;19935;-86
2023/05/11 05:34:11;;;;;;;;;;;14.10;89.50;;;;;;5024154;28;20354;-85
2023/05/11 05:36:38;;;;;;;;;;;14.10;89.40;;;;;;5029034;28;19925;-85
2023/05/11 05:39:07;;;;;;;;;;;14.10;89.30;;;;;;5023952;28;20000;-86
2023/05/11 05:41:33;;;;;;;;;;;14.10;89.40;;;;;;5026069;28;19981;-84
2023/05/11 05:43:58;;;;;;;;;;;14.10;89.30;;;;;;5048952;28;19988;-87
2023/05/11 05:46:24;;;;;;;;;;;14.10;89.50;;;;;;5025249;28;19913;-89
2023/05/11 05:48:49;;;;;;;;;;;14.20;88.80;;;;;;5036382;28;20004;-88
2023/05/11 05:51:15;;;;;;;;;;;14.20;88.90;;;;;;5031435;28;19944;-86
2023/05/11 05:53:41;;;;;;;;;;;14.20;88.80;;;;;;5024017;28;19916;-84
2023/05/11 05:56:06;;;;;;;;;;;14.30;88.50;;;;;;5048480;28;19940;-86
2023/05/11 05:58:31;;;;;;;;;;;14.20;88.60;;;;;;5013655;28;19914;-85
2023/05/11 06:00:57;;;;;;;;;;;14.30;88.50;;;;;;5026015;28;20036;-85
2023/05/11 06:03:22;;;;;;;;;;;14.30;88.70;;;;;;5025701;28;19922;-86
2023/05/11 06:05:48;;;;;;;;;;;14.30;88.30;;;;;;5032258;28;19921;-85
2023/05/11 06:08:13;;;;;;;;;;;14.30;88.20;;;;;;5025752;28;19917;-86
2023/05/11 06:10:39;;;;;;;;;;;14.30;88.50;;;;;;5027852;28;19909;-86
2023/05/11 06:13:06;;;;;;;;;;;14.30;88.20;;;;;;5035493;28;19909;-85
2023/05/11 06:15:31;;;;;;;;;;;14.20;88.70;;;;;;5033100;28;19909;-85
2023/05/11 06:17:56;;;;;;;;;;;14.10;88.60;;;;;;5029695;28;19913;-87
2023/05/11 06:20:23;;;;;;;;;;;14.10;88.40;;;;;;5032923;28;19956;-85
2023/05/11 06:22:48;;;;;;;;;;;14.20;88.10;;;;;;5027935;28;19986;-86
2023/05/11 06:25:13;;;;;;;;;;;14.10;87.90;;;;;;5025410;28;19917;-87
2023/05/11 06:27:39;;;;;;;;;;;14.20;88.30;;;;;;5034285;28;19913;-85
2023/05/11 06:30:05;;;;;;;;;;;14.30;88.20;;;;;;5034201;28;20290;-85
2023/05/11 06:32:31;;;;;;;;;;;14.20;87.90;;;;;;5034458;28;19943;-86
2023/05/11 06:34:57;;;;;;;;;;;14.20;88.10;;;;;;5028017;28;19932;-85
2023/05/11 06:37:22;;;;;;;;;;;14.20;87.90;;;;;;5029150;28;19943;-85
2023/05/11 06:39:48;;;;;;;;;;;14.20;88.20;;;;;;5023562;28;19917;-85
2023/05/11 06:42:13;;;;;;;;;;;14.30;88.30;;;;;;5025035;28;19976;-85
2023/05/11 06:44:40;;;;;;;;;;;14.20;88.30;;;;;;5021716;28;19917;-85
2023/05/11 06:47:08;;;;;;;;;;;14.20;88.40;;;;;;5034070;28;19915;-85
2023/05/11 06:49:34;;;;;;;;;;;14.30;88.50;;;;;;5032502;28;19975;-85
2023/05/11 06:52:00;;;;;;;;;;;14.30;88.80;;;;;;5031980;28;19917;-84
2023/05/11 06:54:25;;;;;;;;;;;14.30;88.20;;;;;;5028908;28;19959;-85
2023/05/11 06:56:50;;;;;;;;;;;14.30;87.80;;;;;;5024763;28;19967;-85
2023/05/11 06:59:16;;;;;;;;;;;14.40;88.10;;;;;;5023317;28;20372;-84
2023/05/11 07:01:42;;;;;;;;;;;14.50;88.00;;;;;;5017443;28;19921;-85
2023/05/11 07:04:07;;;;;;;;;;;14.50;87.70;;;;;;5023233;28;19924;-85
2023/05/11 07:06:33;;;;;;;;;;;14.50;87.60;;;;;;5032054;28;19913;-85
2023/05/11 07:08:58;;;;;;;;;;;14.50;87.30;;;;;;5029302;28;19909;-84
2023/05/11 07:11:24;;;;;;;;;;;14.40;87.60;;;;;;5033606;28;19909;-85
2023/05/11 07:13:50;;;;;;;;;;;14.30;87.80;;;;;;5034940;28;19959;-85
2023/05/11 07:16:15;;;;;;;;;;;14.50;87.80;;;;;;5032856;28;19925;-84
2023/05/11 07:18:41;;;;;;;;;;;14.50;87.60;;;;;;5031313;28;19920;-85
2023/05/11 07:21:06;;;;;;;;;;;14.50;87.70;;;;;;5028898;28;19933;-84
2023/05/11 07:23:32;;;;;;;;;;;14.50;87.40;;;;;;5027201;28;20023;-85
2023/05/11 07:25:57;;;;;;;;;;;14.50;87.30;;;;;;5031747;28;19913;-87
2023/05/11 07:28:23;;;;;;;;;;;14.60;87.10;;;;;;5029774;28;19997;-85
2023/05/11 07:30:48;;;;;;;;;;;14.80;87.00;;;;;;5025763;28;20586;-85
2023/05/11 07:33:13;;;;;;;;;;;15.00;86.40;;;;;;5028841;28;19967;-85
2023/05/11 07:35:39;;;;;;;;;;;15.10;85.50;;;;;;5025512;28;19913;-84
2023/05/11 07:38:06;;;;;;;;;;;15.30;84.80;;;;;;5032667;28;19913;-85
2023/05/11 07:40:32;;;;;;;;;;;15.50;84.40;;;;;;5031439;28;19944;-86
2023/05/11 07:42:58;;;;;;;;;;;15.50;84.70;;;;;;5030094;28;19921;-84
2023/05/11 07:45:23;;;;;;;;;;;15.50;84.10;;;;;;5034542;28;19919;-85
2023/05/11 07:47:48;;;;;;;;;;;15.50;84.10;;;;;;5032447;28;19924;-83
2023/05/11 07:50:14;;;;;;;;;;;15.50;83.90;;;;;;5030646;28;19921;-85
2023/05/11 07:52:39;;;;;;;;;;;15.40;84.10;;;;;;5029575;28;19913;-85
2023/05/11 07:55:05;;;;;;;;;;;15.30;84.10;;;;;;5022519;28;19962;-85
2023/05/11 07:57:30;;;;;;;;;;;15.30;83.30;;;;;;5020357;28;19978;-86
2023/05/11 07:59:56;;;;;;;;;;;15.30;83.80;;;;;;5041113;28;19915;-85
2023/05/11 08:02:21;;;;;;;;;;;15.40;83.40;;;;;;5032580;28;19917;-85
2023/05/11 08:04:47;;;;;;;;;;;15.40;83.40;;;;;;5031958;28;19923;-85
2023/05/11 08:07:12;;;;;;;;;;;15.50;83.50;;;;;;5042365;28;19914;-85
2023/05/11 08:09:38;;;;;;;;;;;15.60;82.30;;;;;;5032001;28;19975;-85
2023/05/11 08:12:03;;;;;;;;;;;15.80;82.00;;;;;;5031442;28;19910;-86
2023/05/11 08:14:29;;;;;;;;;;;16.00;82.20;;;;;;5032291;28;20492;-85
2023/05/11 08:16:54;;;;;;;;;;;16.10;81.60;;;;;;5018628;28;19916;-85
2023/05/11 08:19:20;;;;;;;;;;;16.30;81.60;;;;;;5030163;28;19915;-85
2023/05/11 08:21:45;;;;;;;;;;;16.20;82.10;;;;;;5029730;28;19917;-86
2023/05/11 08:24:11;;;;;;;;;;;16.30;81.70;;;;;;5029295;28;19956;-84
2023/05/11 08:26:37;;;;;;;;;;;16.30;80.70;;;;;;5017311;28;19909;-84
2023/05/11 08:29:05;;;;;;;;;;;16.30;79.30;;;;;;5030512;28;20008;-85
2023/05/11 08:31:31;;;;;;;;;;;16.10;80.50;;;;;;5020606;28;19921;-84
2023/05/11 08:33:56;;;;;;;;;;;16.10;81.20;;;;;;5024050;28;19913;-85
2023/05/11 08:36:22;;;;;;;;;;;16.10;81.40;;;;;;5032710;28;19936;-85
2023/05/11 08:38:47;;;;;;;;;;;16.00;80.60;;;;;;5033411;28;19916;-85
2023/05/11 08:41:13;;;;;;;;;;;15.90;81.30;;;;;;5031695;28;20422;-85
2023/05/11 08:43:39;;;;;;;;;;;15.90;81.30;;;;;;5036995;28;19928;-85
2023/05/11 08:46:08;;;;;;;;;;;15.80;80.10;;;;;;5036067;28;19955;-85
2023/05/11 08:48:33;;;;;;;;;;;15.80;80.20;;;;;;5031096;28;19915;-85
2023/05/11 08:51:03;;;;;;;;;;;15.80;80.00;;;;;;5030170;28;21264;-85
2023/05/11 08:53:28;;;;;;;;;;;15.90;80.60;;;;;;5028479;28;19913;-84
2023/05/11 08:55:54;;;;;;;;;;;15.90;80.50;;;;;;5025697;28;19909;-86
2023/05/11 08:58:21;;;;;;;;;;;15.90;81.20;;;;;;5021220;28;19914;-87
2023/05/11 09:00:47;;;;;;;;;;;15.90;80.00;;;;;;5021064;28;19925;-88
2023/05/11 09:03:13;;;;;;;;;;;16.00;79.50;;;;;;5023277;28;19921;-88
2023/05/11 09:05:38;;;;;;;;;;;16.00;78.90;;;;;;5027986;28;19986;-89
2023/05/11 09:08:04;;;;;;;;;;;16.10;79.20;;;;;;5025550;28;20283;-86
2023/05/11 09:10:31;;;;;;;;;;;16.40;78.10;;;;;;5025205;28;19936;-85
2023/05/11 09:12:56;;;;;;;;;;;16.60;76.80;;;;;;5024872;28;19945;-85
2023/05/11 09:15:22;;;;;;;;;;;16.60;77.80;;;;;;5028364;28;19963;-85
2023/05/11 09:17:47;;;;;;;;;;;16.70;78.00;;;;;;5025090;28;20387;-85
2023/05/11 09:20:13;;;;;;;;;;;16.90;77.80;;;;;;5044459;28;20069;-84
2023/05/11 09:22:42;;;;;;;;;;;17.00;77.10;;;;;;5024109;28;19940;-85
2023/05/11 09:25:10;;;;;;;;;;;17.00;76.80;;;;;;5029021;28;19920;-86
2023/05/11 09:27:40;;;;;;;;;;;17.00;75.40;;;;;;5021058;28;20019;-85
2023/05/11 09:30:11;;;;;;;;;;;17.00;74.80;;;;;;5029155;28;19913;-87
2023/05/11 09:32:57;;;;;;;;;;;17.10;75.50;;;;;;5022785;28;19997;-87
2023/05/11 09:35:22;;;;;;;;;;;17.10;73.60;;;;;;5018832;28;19940;-88
2023/05/11 09:37:57;;;;;;;;;;;17.20;73.50;;;;;;5018128;28;19909;-88
2023/05/11 09:40:23;;;;;;;;;;;17.30;74.90;;;;;;5027176;28;19910;-88
2023/05/11 09:42:49;;;;;;;;;;;17.30;74.70;;;;;;5017981;28;19917;-88
2023/05/11 09:45:32;;;;;;;;;;;17.50;72.40;;;;;;5029160;28;20394;-88
2023/05/11 09:47:58;;;;;;;;;;;17.60;73.30;;;;;;5029468;28;20327;-88
2023/05/11 09:50:23;;;;;;;;;;;17.60;72.60;;;;;;5030707;28;19917;-87
2023/05/11 09:52:50;;;;;;;;;;;17.60;72.50;;;;;;5031412;28;20427;-87
2023/05/11 09:55:16;;;;;;;;;;;17.50;73.60;;;;;;5033927;28;19910;-88
2023/05/11 09:57:41;;;;;;;;;;;17.60;73.30;;;;;;5023853;28;19920;-88
2023/05/11 10:00:13;;;;;;;;;;;17.60;73.40;;;;;;5024295;28;20327;-88
2023/05/11 10:02:38;;;;;;;;;;;17.60;72.40;;;;;;5025222;28;19924;-87
2023/05/11 10:05:10;;;;;;;;;;;17.60;72.60;;;;;;5023231;28;19913;-88
2023/05/11 10:07:36;;;;;;;;;;;17.60;72.40;;;;;;5030917;28;19913;-87
2023/05/11 10:10:06;;;;;;;;;;;17.70;72.80;;;;;;5040200;28;19921;-88
2023/05/11 10:12:37;;;;;;;;;;;17.80;72.30;;;;;;5025435;28;20406;-87
2023/05/11 10:15:04;;;;;;;;;;;18.00;69.60;;;;;;5026260;28;19952;-87
2023/05/11 10:17:30;;;;;;;;;;;17.90;71.30;;;;;;5020890;28;19910;-88
2023/05/11 10:19:56;;;;;;;;;;;17.90;70.40;;;;;;5012965;28;20016;-88
2023/05/11 10:22:23;;;;;;;;;;;18.10;69.60;;;;;;5025620;28;19971;-88
2023/05/11 10:24:49;;;;;;;;;;;17.90;70.90;;;;;;5025962;28;20000;-89
2023/05/11 10:27:14;;;;;;;;;;;17.90;73.00;;;;;;5029174;28;19909;-88
2023/05/11 10:29:40;;;;;;;;;;;18.00;71.20;;;;;;5025817;28;19963;-88
2023/05/11 10:32:06;;;;;;;;;;;17.90;71.30;;;;;;5029000;28;20256;-89
2023/05/11 10:34:32;;;;;;;;;;;18.10;70.80;;;;;;5031466;28;19916;-89
2023/05/11 10:37:01;;;;;;;;;;;18.00;71.30;;;;;;5019457;28;20040;-89
2023/05/11 10:39:28;;;;;;;;;;;18.00;70.80;;;;;;5022580;28;19971;-89
2023/05/11 10:42:12;;;;;;;;;;;18.10;70.50;;;;;;5025124;28;20390;-90
2023/05/11 10:44:45;;;;;;;;;;;18.10;71.00;;;;;;5020708;28;19917;-90
2023/05/11 10:47:37;;;;;;;;;;;18.10;69.30;;;;;;5025979;28;19913;-90
2023/05/11 10:50:12;;;;;;;;;;;18.10;71.50;;;;;;5013428;28;19963;-90
2023/05/11 10:52:52;;;;;;;;;;;18.10;70.00;;;;;;5027464;28;19968;-89
2023/05/11 10:55:27;;;;;;;;;;;18.10;67.50;;;;;;5019636;28;20338;-90
2023/05/11 10:58:02;;;;;;;;;;;18.10;67.50;;;;;;5027767;28;19924;-89
2023/05/11 11:00:42;;;;;;;;;;;18.10;69.30;;;;;;5030229;28;19914;-89
2023/05/11 11:03:08;;;;;;;;;;;18.20;69.70;;;;;;5031969;28;19913;-89
2023/05/11 11:05:35;;;;;;;;;;;18.20;69.00;;;;;;5026981;28;19909;-89
2023/05/11 11:08:04;;;;;;;;;;;18.20;70.20;;;;;;5026889;28;19913;-89
2023/05/11 11:10:30;;;;;;;;;;;18.30;68.30;;;;;;5017787;28;20406;-89
2023/05/11 11:13:03;;;;;;;;;;;18.30;68.00;;;;;;5011620;28;19916;-90
2023/05/11 11:15:47;;;;;;;;;;;18.30;68.30;;;;;;5012333;28;20052;-86
2023/05/11 11:18:26;;;;;;;;;;;18.50;68.30;;;;;;5026645;28;20020;-87
2023/05/11 11:20:52;;;;;;;;;;;18.60;67.30;;;;;;5031258;28;19987;-88
2023/05/11 11:23:36;;;;;;;;;;;18.60;67.70;;;;;;5030910;28;19913;-88
2023/05/11 11:26:01;;;;;;;;;;;18.70;67.30;;;;;;5029679;28;19909;-88
2023/05/11 11:28:47;;;;;;;;;;;18.70;65.20;;;;;;5030998;28;19924;-88
2023/05/11 11:31:23;;;;;;;;;;;18.70;66.50;;;;;;5030478;28;19921;-88
2023/05/11 11:33:51;;;;;;;;;;;18.80;68.00;;;;;;5022960;28;19945;-88
2023/05/11 11:36:17;;;;;;;;;;;18.60;68.00;;;;;;5031463;28;19960;-88
2023/05/11 11:39:01;;;;;;;;;;;18.50;68.40;;;;;;5025420;28;19917;-87
2023/05/11 11:41:27;;;;;;;;;;;18.30;69.70;;;;;;5048843;28;19913;-88
2023/05/11 11:43:54;;;;;;;;;;;18.20;69.80;;;;;;5036586;28;19951;-86
2023/05/11 11:46:27;;;;;;;;;;;18.00;70.70;;;;;;5022932;28;20402;-85
2023/05/11 11:49:05;;;;;;;;;;;17.90;70.30;;;;;;5023570;28;19921;-88
2023/05/11 11:51:36;;;;;;;;;;;17.80;69.50;;;;;;5043930;28;20401;-88
2023/05/11 11:54:01;;;;;;;;;;;17.70;70.80;;;;;;5029992;28;19913;-87
2023/05/11 11:56:27;;;;;;;;;;;17.70;70.20;;;;;;5023810;28;20430;-86
2023/05/11 11:58:57;;;;;;;;;;;17.70;70.40;;;;;;5025859;28;20299;-87
2023/05/11 12:01:25;;;;;;;;;;;17.70;69.90;;;;;;5020544;28;19928;-85
2023/05/11 12:04:03;;;;;;;;;;;17.70;71.80;;;;;;5028250;28;19932;-86
2023/05/11 12:06:35;;;;;;;;;;;17.60;71.20;;;;;;5025109;28;19921;-86
2023/05/11 12:09:01;;;;;;;;;;;17.60;71.80;;;;;;5030240;28;19951;-86
2023/05/11 12:11:28;;;;;;;;;;;17.70;72.20;;;;;;5027141;28;20322;-86
2023/05/11 12:13:53;;;;;;;;;;;17.70;71.20;;;;;;5030236;28;19920;-87
2023/05/11 12:16:22;;;;;;;;;;;17.70;71.60;;;;;;5027496;28;19921;-86
2023/05/11 12:18:51;;;;;;;;;;;17.80;71.70;;;;;;5017087;28;19913;-86
2023/05/11 12:21:20;;;;;;;;;;;17.90;71.30;;;;;;5028383;28;19920;-85
2023/05/11 12:23:53;;;;;;;;;;;18.10;70.00;;;;;;5020595;28;20007;-85
2023/05/11 12:26:19;;;;;;;;;;;18.10;69.40;;;;;;5026336;28;19918;-86
2023/05/11 12:28:48;;;;;;;;;;;18.30;69.80;;;;;;5020079;28;19924;-85
2023/05/11 12:31:13;;;;;;;;;;;18.30;69.30;;;;;;5025414;28;20435;-83
2023/05/11 12:33:49;;;;;;;;;;;18.40;68.40;;;;;;5030648;28;19952;-83
2023/05/11 12:36:15;;;;;;;;;;;18.60;68.60;;;;;;5026537;28;19913;-85
2023/05/11 12:38:47;;;;;;;;;;;18.60;69.50;;;;;;5027824;28;20409;-85
2023/05/11 12:41:21;;;;;;;;;;;18.70;68.80;;;;;;5029701;28;20163;-86
2023/05/11 12:43:50;;;;;;;;;;;18.70;68.80;;;;;;5019461;28;19967;-85
2023/05/11 12:46:16;;;;;;;;;;;18.70;68.90;;;;;;5026580;28;19948;-85
2023/05/11 12:48:42;;;;;;;;;;;18.70;70.00;;;;;;5024632;28;19910;-85
2023/05/11 12:51:07;;;;;;;;;;;18.90;69.00;;;;;;5029167;28;19924;-85
2023/05/11 12:53:35;;;;;;;;;;;18.80;68.70;;;;;;5021815;28;20028;-85
2023/05/11 12:56:00;;;;;;;;;;;18.80;67.50;;;;;;5014239;28;19910;-85
2023/05/11 12:58:34;;;;;;;;;;;18.90;67.80;;;;;;5009965;28;19986;-85
2023/05/11 13:00:59;;;;;;;;;;;18.90;68.40;;;;;;5023172;28;19963;-85
2023/05/11 13:03:29;;;;;;;;;;;18.90;67.50;;;;;;5023021;28;19957;-85
2023/05/11 13:06:05;;;;;;;;;;;18.70;68.30;;;;;;5018447;28;19992;-85
2023/05/11 13:08:30;;;;;;;;;;;18.50;69.00;;;;;;5032412;28;19910;-85
2023/05/11 13:11:15;;;;;;;;;;;18.30;71.60;;;;;;5029647;28;20278;-86
2023/05/11 13:13:40;;;;;;;;;;;17.80;73.70;;;;;;5025235;28;19916;-85
2023/05/11 13:16:06;;;;;;;;;;;17.40;75.50;;;;;;5029084;28;19913;-85
2023/05/11 13:18:31;;;;;;;;;;;17.10;76.50;;;;;;5023330;28;19994;-85
2023/05/11 13:21:04;;;;;;;;;;;16.90;78.10;;;;;;5029573;28;20481;-85
2023/05/11 13:23:30;;;;;;;;;;;16.70;78.90;;;;;;5023979;28;19924;-85
2023/05/11 13:25:56;;;;;;;;;;;16.50;79.70;;;;;;5030696;28;19925;-85
2023/05/11 13:28:23;;;;;;;;;;;16.30;79.60;;;;;;5034408;28;19916;-85
2023/05/11 13:30:50;;;;;;;;;;;16.10;80.70;;;;;;5032936;28;19917;-85
2023/05/11 13:33:15;;;;;;;;;;;16.00;82.00;;;;;;5041672;28;20443;-85
2023/05/11 13:35:41;;;;;;;;;;;16.00;82.00;;;;;;5032621;28;20084;-85
2023/05/11 13:38:08;;;;;;;;;;;15.70;83.00;;;;;;5024093;28;19941;-84
2023/05/11 13:40:33;;;;;;;;;;;15.60;84.20;;;;;;5033726;28;19913;-85
2023/05/11 13:42:59;;;;;;;;;;;15.80;83.50;;;;;;5026309;28;19917;-85
2023/05/11 13:45:25;;;;;;;;;;;15.80;84.80;;;;;;5033066;28;19971;-85
2023/05/11 13:47:50;;;;;;;;;;;15.80;84.60;;;;;;5035224;28;19940;-85
2023/05/11 13:50:16;;;;;;;;;;;15.90;84.00;;;;;;5030317;28;19917;-85
2023/05/11 13:52:42;;;;;;;;;;;15.90;85.10;;;;;;5028449;28;19909;-85
2023/05/11 13:55:07;;;;;;;;;;;16.00;85.00;;;;;;5033723;28;20008;-85
2023/05/11 13:57:33;;;;;;;;;;;16.10;84.80;;;;;;5033132;28;19963;-85
2023/05/11 13:59:58;;;;;;;;;;;16.10;85.30;;;;;;5028314;28;19960;-85
2023/05/11 14:02:24;;;;;;;;;;;16.20;84.80;;;;;;5028776;28;19996;-85
2023/05/11 14:04:49;;;;;;;;;;;16.20;85.60;;;;;;5025962;28;19921;-85
2023/05/11 14:07:15;;;;;;;;;;;16.30;85.00;;;;;;5034441;28;19910;-85
2023/05/11 14:09:42;;;;;;;;;;;16.30;85.30;;;;;;5032805;28;19920;-85
2023/05/11 14:12:08;;;;;;;;;;;16.40;83.20;;;;;;5026484;28;19964;-85
2023/05/11 14:14:33;;;;;;;;;;;16.30;83.60;;;;;;5033606;28;19913;-85
2023/05/11 14:16:59;;;;;;;;;;;16.20;84.10;;;;;;5025688;28;19920;-85